Time;durP1;ratioP1;P1;durP2;ratioP2;P2;SDS_P1;SDS_P2;PMS_P1;PMS_P2;Temp;Humidity;BMP_temperature;BMP_pressure;BME280_temperature;BME280_humidity;BME280_pressure;Samples;Min_cycle;Max_cycle;Signal;HPM_P1;HPM_P2
2023/03/06 00:00:51;;;;;;;43.10;22.70;;;;;;;;;;5034211;28;20483;-68
2023/03/06 00:03:18;;;;;;;43.85;23.45;;;;;;;;;;5034034;28;20041;-68
2023/03/06 00:05:44;;;;;;;45.95;23.17;;;;;;;;;;5034443;28;20024;-68
2023/03/06 00:08:10;;;;;;;51.03;24.15;;;;;;;;;;5033808;28;20032;-68
2023/03/06 00:10:37;;;;;;;44.03;23.38;;;;;;;;;;5033860;28;20017;-68
2023/03/06 00:13:05;;;;;;;47.65;24.25;;;;;;;;;;5034377;28;20029;-68
2023/03/06 00:15:31;;;;;;;42.03;22.83;;;;;;;;;;5033813;28;20036;-68
2023/03/06 00:17:57;;;;;;;41.15;22.77;;;;;;;;;;5033885;28;20159;-68
2023/03/06 00:20:24;;;;;;;44.22;23.27;;;;;;;;;;5033998;28;20025;-68
2023/03/06 00:22:51;;;;;;;46.92;23.45;;;;;;;;;;5033622;28;20043;-68
2023/03/06 00:25:18;;;;;;;45.25;23.90;;;;;;;;;;5033788;28;20469;-68
2023/03/06 00:27:45;;;;;;;48.83;24.15;;;;;;;;;;5033982;28;20025;-68
2023/03/06 00:30:13;;;;;;;68.60;31.42;;;;;;;;;;5033652;28;20056;-67
2023/03/06 00:32:39;;;;;;;50.45;25.67;;;;;;;;;;5033772;28;20029;-68
2023/03/06 00:35:06;;;;;;;43.38;22.27;;;;;;;;;;5033468;28;20031;-68
2023/03/06 00:37:32;;;;;;;45.60;23.63;;;;;;;;;;5032365;28;20057;-67
2023/03/06 00:39:58;;;;;;;47.60;23.65;;;;;;;;;;5033307;28;20033;-68
2023/03/06 00:42:25;;;;;;;43.92;24.17;;;;;;;;;;5033283;28;20472;-67
2023/03/06 00:44:51;;;;;;;49.20;25.00;;;;;;;;;;5032254;28;20041;-69
2023/03/06 00:47:17;;;;;;;45.25;23.63;;;;;;;;;;5033415;28;20025;-68
2023/03/06 00:49:44;;;;;;;44.47;23.25;;;;;;;;;;5033176;28;20021;-67
2023/03/06 00:52:11;;;;;;;40.53;21.75;;;;;;;;;;5033107;28;20029;-68
2023/03/06 00:54:37;;;;;;;41.47;22.15;;;;;;;;;;5033142;28;20425;-68
2023/03/06 00:57:03;;;;;;;42.80;21.65;;;;;;;;;;5033401;28;20035;-68
2023/03/06 00:59:30;;;;;;;50.22;27.17;;;;;;;;;;5032671;28;20013;-68
2023/03/06 01:01:56;;;;;;;50.10;26.45;;;;;;;;;;5032886;28;20032;-68
2023/03/06 01:04:23;;;;;;;44.40;23.88;;;;;;;;;;5033040;28;20036;-68
2023/03/06 01:06:49;;;;;;;40.30;22.33;;;;;;;;;;5032978;28;20023;-68
2023/03/06 01:09:15;;;;;;;45.88;23.65;;;;;;;;;;5032986;28;20088;-68
2023/03/06 01:11:42;;;;;;;40.47;22.75;;;;;;;;;;5032897;28;20051;-68
2023/03/06 01:14:08;;;;;;;48.35;23.17;;;;;;;;;;5032512;28;20022;-68
2023/03/06 01:16:34;;;;;;;45.53;22.77;;;;;;;;;;5032885;28;20025;-69
2023/03/06 01:19:01;;;;;;;43.67;22.98;;;;;;;;;;5031553;28;20074;-68
2023/03/06 01:21:27;;;;;;;44.50;22.83;;;;;;;;;;5032766;28;20057;-68
2023/03/06 01:23:53;;;;;;;47.58;23.00;;;;;;;;;;5032894;28;20026;-68
2023/03/06 01:26:20;;;;;;;40.80;22.38;;;;;;;;;;5032692;28;20022;-68
2023/03/06 01:28:46;;;;;;;41.05;22.13;;;;;;;;;;5032309;28;20029;-68
2023/03/06 01:31:12;;;;;;;42.45;21.55;;;;;;;;;;5032640;28;20333;-68
2023/03/06 01:33:39;;;;;;;39.55;21.27;;;;;;;;;;5032857;28;20020;-68
2023/03/06 01:36:07;;;;;;;43.42;23.05;;;;;;;;;;5032613;28;20026;-68
2023/03/06 01:38:34;;;;;;;40.55;21.17;;;;;;;;;;5032852;28;20036;-68
2023/03/06 01:41:02;;;;;;;41.03;22.35;;;;;;;;;;5032646;28;20041;-68
2023/03/06 01:43:33;;;;;;;41.90;22.08;;;;;;;;;;5031797;28;20464;-68
2023/03/06 01:46:17;;;;;;;43.17;22.45;;;;;;;;;;5032543;28;20032;-68
2023/03/06 01:48:44;;;;;;;44.45;21.73;;;;;;;;;;5032601;28;20022;-68
2023/03/06 01:51:11;;;;;;;39.80;21.05;;;;;;;;;;5032604;28;20040;-68
2023/03/06 01:53:38;;;;;;;40.20;22.02;;;;;;;;;;5032244;28;20026;-68
2023/03/06 01:56:04;;;;;;;40.92;21.63;;;;;;;;;;5034209;28;20021;-68
2023/03/06 01:58:31;;;;;;;38.28;22.00;;;;;;;;;;5036007;28;20026;-67
2023/03/06 02:00:57;;;;;;;44.75;21.33;;;;;;;;;;5036288;28;20025;-68
2023/03/06 02:03:26;;;;;;;42.30;22.33;;;;;;;;;;5036257;28;20042;-68
2023/03/06 02:05:52;;;;;;;43.78;21.50;;;;;;;;;;5036283;28;20482;-68
2023/03/06 02:08:20;;;;;;;41.45;21.83;;;;;;;;;;5036194;28;20513;-68
2023/03/06 02:10:55;;;;;;;46.35;23.58;;;;;;;;;;5036143;28;20026;-68
2023/03/06 02:13:22;;;;;;;45.13;22.80;;;;;;;;;;5036072;28;20025;-68
2023/03/06 02:15:48;;;;;;;43.05;23.23;;;;;;;;;;5036066;28;20029;-68
2023/03/06 02:18:14;;;;;;;46.72;22.70;;;;;;;;;;5036277;28;20033;-68
2023/03/06 02:20:48;;;;;;;50.25;23.30;;;;;;;;;;5036097;28;20030;-68
2023/03/06 02:23:33;;;;;;;44.20;22.88;;;;;;;;;;5035870;28;20486;-68
2023/03/06 02:26:00;;;;;;;47.40;22.25;;;;;;;;;;5034482;28;20024;-68
2023/03/06 02:28:26;;;;;;;40.88;20.40;;;;;;;;;;5035901;28;20051;-68
2023/03/06 02:30:54;;;;;;;43.55;22.38;;;;;;;;;;5035860;28;20030;-68
2023/03/06 02:33:22;;;;;;;44.65;22.17;;;;;;;;;;5035621;28;20028;-68
2023/03/06 02:35:53;;;;;;;44.63;22.17;;;;;;;;;;5034540;28;20444;-68
2023/03/06 02:38:22;;;;;;;42.28;21.27;;;;;;;;;;5035515;28;20026;-68
2023/03/06 02:40:50;;;;;;;39.15;20.13;;;;;;;;;;5035425;28;20481;-68
2023/03/06 02:43:19;;;;;;;43.28;21.75;;;;;;;;;;5035407;28;20053;-68
2023/03/06 02:45:47;;;;;;;41.30;21.80;;;;;;;;;;5035738;28;20037;-67
2023/03/06 02:48:14;;;;;;;42.53;21.52;;;;;;;;;;5035389;28;20470;-68
2023/03/06 02:50:41;;;;;;;37.63;20.42;;;;;;;;;;5035481;28;20044;-68
2023/03/06 02:53:08;;;;;;;42.75;19.95;;;;;;;;;;5035456;28;20478;-68
2023/03/06 02:55:35;;;;;;;37.50;19.80;;;;;;;;;;5035135;28;20032;-68
2023/03/06 02:58:01;;;;;;;40.78;20.70;;;;;;;;;;5035708;28;20033;-68
2023/03/06 03:00:28;;;;;;;37.25;20.20;;;;;;;;;;5035433;28;20020;-68
2023/03/06 03:02:54;;;;;;;45.50;21.17;;;;;;;;;;5035094;28;20486;-68
2023/03/06 03:05:20;;;;;;;38.85;18.95;;;;;;;;;;5035342;28;20021;-68
2023/03/06 03:07:47;;;;;;;43.92;20.20;;;;;;;;;;5034538;28;20055;-68
2023/03/06 03:10:13;;;;;;;45.38;21.00;;;;;;;;;;5034782;28;20024;-68
2023/03/06 03:12:40;;;;;;;44.60;22.02;;;;;;;;;;5035098;28;20389;-68
2023/03/06 03:15:06;;;;;;;42.42;20.88;;;;;;;;;;5033788;28;20036;-68
2023/03/06 03:17:36;;;;;;;42.63;20.45;;;;;;;;;;5035507;28;20028;-68
2023/03/06 03:20:03;;;;;;;38.17;20.38;;;;;;;;;;5034899;28;20394;-68
2023/03/06 03:22:29;;;;;;;40.65;21.13;;;;;;;;;;5034708;28;20509;-68
2023/03/06 03:24:56;;;;;;;39.20;19.60;;;;;;;;;;5034699;28;20048;-68
2023/03/06 03:27:22;;;;;;;39.08;19.98;;;;;;;;;;5034815;28;20033;-68
2023/03/06 03:29:48;;;;;;;41.05;21.38;;;;;;;;;;5034756;28;20051;-68
2023/03/06 03:32:14;;;;;;;44.63;20.77;;;;;;;;;;5034558;28;20021;-68
2023/03/06 03:34:41;;;;;;;41.80;21.50;;;;;;;;;;5034629;28;20375;-68
2023/03/06 03:37:07;;;;;;;39.55;20.63;;;;;;;;;;5034748;28;20079;-68
2023/03/06 03:39:33;;;;;;;38.42;20.00;;;;;;;;;;5034098;28;20124;-68
2023/03/06 03:42:00;;;;;;;42.47;21.40;;;;;;;;;;5034455;28;20056;-68
2023/03/06 03:44:26;;;;;;;42.72;21.52;;;;;;;;;;5034275;28;20060;-68
2023/03/06 03:46:52;;;;;;;42.10;20.77;;;;;;;;;;5034343;28;20029;-68
2023/03/06 03:49:18;;;;;;;43.22;21.40;;;;;;;;;;5034244;28;20021;-68
2023/03/06 03:51:45;;;;;;;41.85;21.35;;;;;;;;;;5034669;28;20021;-68
2023/03/06 03:54:11;;;;;;;39.15;19.80;;;;;;;;;;5033960;28;20028;-68
2023/03/06 03:56:39;;;;;;;43.58;21.05;;;;;;;;;;5034562;28;20029;-68
2023/03/06 03:59:06;;;;;;;40.47;20.42;;;;;;;;;;5034182;28;20061;-68
2023/03/06 04:01:32;;;;;;;45.05;20.67;;;;;;;;;;5034067;28;20025;-68
2023/03/06 04:03:58;;;;;;;40.47;20.15;;;;;;;;;;5034015;28;20035;-68
2023/03/06 04:06:25;;;;;;;46.53;19.80;;;;;;;;;;5034076;28;20018;-68
2023/03/06 04:08:51;;;;;;;42.10;21.27;;;;;;;;;;5033594;28;20025;-68
2023/03/06 04:11:17;;;;;;;46.20;20.88;;;;;;;;;;5034035;28;20033;-68
2023/03/06 04:13:44;;;;;;;44.58;20.67;;;;;;;;;;5034062;28;20021;-68
2023/03/06 04:16:10;;;;;;;49.78;22.25;;;;;;;;;;5033891;28;20026;-68
2023/03/06 04:18:37;;;;;;;46.42;22.25;;;;;;;;;;5033040;28;20017;-68
2023/03/06 04:21:03;;;;;;;42.30;20.23;;;;;;;;;;5032894;28;20033;-68
2023/03/06 04:23:29;;;;;;;42.38;20.35;;;;;;;;;;5033157;28;20037;-68
2023/03/06 04:25:56;;;;;;;38.30;19.90;;;;;;;;;;5033695;28;20016;-68
2023/03/06 04:28:22;;;;;;;40.20;19.77;;;;;;;;;;5033654;28;20052;-68
2023/03/06 04:30:49;;;;;;;43.17;20.00;;;;;;;;;;5033369;28;20034;-68
2023/03/06 04:33:15;;;;;;;42.05;21.70;;;;;;;;;;5033486;28;20086;-68
2023/03/06 04:35:41;;;;;;;43.38;21.60;;;;;;;;;;5032326;28;20032;-68
2023/03/06 04:38:08;;;;;;;42.35;21.02;;;;;;;;;;5033080;28;20516;-68
2023/03/06 04:40:35;;;;;;;45.75;20.48;;;;;;;;;;5033439;28;20078;-68
2023/03/06 04:43:02;;;;;;;41.13;20.33;;;;;;;;;;5033125;28;20047;-68
2023/03/06 04:45:29;;;;;;;42.40;22.08;;;;;;;;;;5033146;28;20379;-68
2023/03/06 04:47:55;;;;;;;43.08;20.90;;;;;;;;;;5032314;28;20071;-68
2023/03/06 04:50:23;;;;;;;37.17;20.27;;;;;;;;;;5033186;28;20029;-68
2023/03/06 04:52:49;;;;;;;41.95;20.17;;;;;;;;;;5033114;28;20030;-68
2023/03/06 04:55:16;;;;;;;38.58;20.20;;;;;;;;;;5033490;28;20017;-68
2023/03/06 04:57:43;;;;;;;40.13;20.10;;;;;;;;;;5033235;28;20466;-68
2023/03/06 05:00:18;;;;;;;38.45;19.38;;;;;;;;;;5033232;28;20078;-68
2023/03/06 05:02:44;;;;;;;36.05;17.73;;;;;;;;;;5032759;28;20486;-68
2023/03/06 05:05:12;;;;;;;39.47;19.80;;;;;;;;;;5032926;28;20025;-68
2023/03/06 05:07:38;;;;;;;35.90;19.45;;;;;;;;;;5032718;28;20025;-68
2023/03/06 05:10:05;;;;;;;44.60;19.65;;;;;;;;;;5033020;28;20025;-68
2023/03/06 05:12:34;;;;;;;36.60;18.08;;;;;;;;;;5031604;28;20020;-68
2023/03/06 05:15:00;;;;;;;39.58;18.52;;;;;;;;;;5032973;28;20026;-68
2023/03/06 05:17:27;;;;;;;35.30;18.48;;;;;;;;;;5032699;28;20359;-68
2023/03/06 05:19:53;;;;;;;42.08;21.38;;;;;;;;;;5032495;28;20025;-67
2023/03/06 05:22:19;;;;;;;45.38;19.55;;;;;;;;;;5032708;28;20030;-68
2023/03/06 05:24:46;;;;;;;37.65;20.05;;;;;;;;;;5032573;28;20393;-68
2023/03/06 05:27:12;;;;;;;39.85;20.13;;;;;;;;;;5032864;28;20024;-68
2023/03/06 05:29:38;;;;;;;77.47;36.00;;;;;;;;;;5032529;28;20029;-68
2023/03/06 05:32:05;;;;;;;94.63;42.15;;;;;;;;;;5032703;28;20018;-68
2023/03/06 05:34:31;;;;;;;61.28;30.75;;;;;;;;;;5032138;28;20031;-67
2023/03/06 05:37:00;;;;;;;51.72;25.23;;;;;;;;;;5032503;28;20151;-68
2023/03/06 05:39:27;;;;;;;49.22;23.77;;;;;;;;;;5032853;28;20028;-68
2023/03/06 05:41:53;;;;;;;46.60;25.10;;;;;;;;;;5032793;28;20044;-68
2023/03/06 05:44:22;;;;;;;51.08;23.40;;;;;;;;;;5032252;28;20045;-68
2023/03/06 05:46:49;;;;;;;41.90;21.20;;;;;;;;;;5032657;28;20031;-68
2023/03/06 05:49:16;;;;;;;45.85;22.30;;;;;;;;;;5032092;28;20029;-68
2023/03/06 05:51:42;;;;;;;45.75;22.00;;;;;;;;;;5032473;28;20018;-68
2023/03/06 05:54:09;;;;;;;47.60;23.15;;;;;;;;;;5032269;28;20402;-68
2023/03/06 05:56:35;;;;;;;47.90;23.63;;;;;;;;;;5032361;28;20028;-68
2023/03/06 05:59:01;;;;;;;49.92;23.58;;;;;;;;;;5032513;28;20501;-68
2023/03/06 06:01:29;;;;;;;52.40;22.45;;;;;;;;;;5032507;28;20029;-68
2023/03/06 06:03:55;;;;;;;51.10;23.60;;;;;;;;;;5030750;28;20038;-68
2023/03/06 06:06:21;;;;;;;43.83;22.25;;;;;;;;;;5032520;28;20151;-67
2023/03/06 06:08:48;;;;;;;47.03;22.23;;;;;;;;;;5030965;28;20025;-68
2023/03/06 06:11:14;;;;;;;49.58;22.90;;;;;;;;;;5032289;28;20237;-68
2023/03/06 06:13:41;;;;;;;42.58;21.98;;;;;;;;;;5032103;28;20482;-68
2023/03/06 06:16:11;;;;;;;45.97;22.15;;;;;;;;;;5032151;28;20385;-68
2023/03/06 06:18:38;;;;;;;43.95;22.15;;;;;;;;;;5031822;28;20490;-68
2023/03/06 06:21:06;;;;;;;44.53;21.83;;;;;;;;;;5032282;28;20017;-67
2023/03/06 06:23:32;;;;;;;45.28;21.35;;;;;;;;;;5031997;28;20490;-68
2023/03/06 06:26:03;;;;;;;41.60;20.85;;;;;;;;;;5032041;28;20025;-68
2023/03/06 06:28:30;;;;;;;38.28;19.25;;;;;;;;;;5032027;28;20037;-68
2023/03/06 06:30:56;;;;;;;56.67;26.02;;;;;;;;;;5032003;28;20029;-68
2023/03/06 06:33:23;;;;;;;47.53;21.73;;;;;;;;;;5031737;28;20032;-68
2023/03/06 06:35:50;;;;;;;45.17;21.15;;;;;;;;;;5032080;28;20044;-68
2023/03/06 06:38:17;;;;;;;49.92;20.50;;;;;;;;;;5031953;28;20039;-68
2023/03/06 06:40:43;;;;;;;61.40;32.80;;;;;;;;;;5031734;28;20033;-68
2023/03/06 06:43:09;;;;;;;46.45;22.65;;;;;;;;;;5035043;28;20580;-68
2023/03/06 06:45:36;;;;;;;48.30;21.88;;;;;;;;;;5035421;28;20025;-68
2023/03/06 06:48:02;;;;;;;41.30;21.88;;;;;;;;;;5035117;28;20032;-68
2023/03/06 06:50:28;;;;;;;46.03;23.13;;;;;;;;;;5035634;28;20033;-68
2023/03/06 06:52:55;;;;;;;84.35;36.70;;;;;;;;;;5035644;28;20025;-68
2023/03/06 06:55:21;;;;;;;45.85;21.35;;;;;;;;;;5035403;28;20363;-68
2023/03/06 06:57:47;;;;;;;47.17;20.77;;;;;;;;;;5035587;28;20033;-68
2023/03/06 07:00:14;;;;;;;41.92;20.85;;;;;;;;;;5035274;28;20026;-68
2023/03/06 07:02:40;;;;;;;39.42;20.88;;;;;;;;;;5034752;28;20034;-68
2023/03/06 07:05:07;;;;;;;46.47;23.20;;;;;;;;;;5034819;28;20017;-69
2023/03/06 07:07:35;;;;;;;40.47;22.13;;;;;;;;;;5035459;28;20025;-68
2023/03/06 07:10:01;;;;;;;47.00;22.60;;;;;;;;;;5034875;28;20025;-68
2023/03/06 07:12:31;;;;;;;40.75;22.48;;;;;;;;;;5034905;28;20021;-68
2023/03/06 07:14:57;;;;;;;42.45;21.58;;;;;;;;;;5030387;28;20017;-68
2023/03/06 07:17:23;;;;;;;40.50;20.65;;;;;;;;;;5034187;28;20101;-68
2023/03/06 07:19:50;;;;;;;38.45;20.08;;;;;;;;;;5034343;28;20033;-68
2023/03/06 07:22:16;;;;;;;49.75;24.80;;;;;;;;;;5030517;28;20048;-68
2023/03/06 07:24:42;;;;;;;78.22;36.50;;;;;;;;;;5033432;28;20029;-68
2023/03/06 07:27:09;;;;;;;41.53;20.00;;;;;;;;;;5034120;28;20386;-68
2023/03/06 07:29:35;;;;;;;39.78;20.50;;;;;;;;;;5030466;28;20055;-68
2023/03/06 07:32:01;;;;;;;44.33;21.40;;;;;;;;;;5033578;28;20036;-69
2023/03/06 07:34:28;;;;;;;33.20;19.40;;;;;;;;;;5027231;28;20448;-68
2023/03/06 07:36:54;;;;;;;38.58;19.17;;;;;;;;;;5032338;28;20039;-68
2023/03/06 07:39:21;;;;;;;34.92;19.02;;;;;;;;;;5031639;28;20025;-68
2023/03/06 07:41:47;;;;;;;40.90;21.67;;;;;;;;;;5033206;28;20034;-67
2023/03/06 07:44:13;;;;;;;40.22;19.27;;;;;;;;;;5032246;28;20037;-68
2023/03/06 07:46:39;;;;;;;41.67;20.38;;;;;;;;;;5032467;28;20017;-68
2023/03/06 07:49:06;;;;;;;32.88;18.65;;;;;;;;;;5032864;28;20021;-68
2023/03/06 07:51:32;;;;;;;36.58;19.88;;;;;;;;;;5030916;28;20040;-69
2023/03/06 07:53:58;;;;;;;32.80;19.20;;;;;;;;;;5032622;28;20029;-69
2023/03/06 07:56:25;;;;;;;32.95;18.15;;;;;;;;;;5032072;28;20025;-69
2023/03/06 07:58:51;;;;;;;39.95;19.70;;;;;;;;;;5033164;28;20047;-69
2023/03/06 08:01:19;;;;;;;40.95;20.08;;;;;;;;;;5032272;28;20036;-69
2023/03/06 08:03:45;;;;;;;35.60;19.55;;;;;;;;;;5031915;28;20064;-69
2023/03/06 08:06:32;;;;;;;33.80;19.30;;;;;;;;;;5037735;28;20490;-69
2023/03/06 08:08:58;;;;;;;31.98;19.05;;;;;;;;;;5032413;28;20033;-69
2023/03/06 08:11:26;;;;;;;36.50;18.38;;;;;;;;;;5032605;28;20026;-69
2023/03/06 08:13:53;;;;;;;31.02;18.63;;;;;;;;;;5032995;28;20074;-68
2023/03/06 08:16:24;;;;;;;32.55;19.10;;;;;;;;;;5032038;28;20042;-70
2023/03/06 08:18:50;;;;;;;33.17;18.60;;;;;;;;;;5032672;28;20429;-71
2023/03/06 08:21:18;;;;;;;31.67;19.33;;;;;;;;;;5031914;28;20397;-70
2023/03/06 08:23:45;;;;;;;33.33;18.00;;;;;;;;;;5029436;28;20032;-72
2023/03/06 08:26:12;;;;;;;36.28;18.42;;;;;;;;;;5029962;28;20036;-70
2023/03/06 08:28:39;;;;;;;29.75;17.23;;;;;;;;;;5030648;28;20044;-71
2023/03/06 08:31:08;;;;;;;34.10;19.42;;;;;;;;;;5031285;28;20029;-71
2023/03/06 08:33:35;;;;;;;30.08;17.83;;;;;;;;;;5030898;28;20021;-71
2023/03/06 08:36:01;;;;;;;29.65;17.70;;;;;;;;;;5030329;28;20032;-75
2023/03/06 08:38:27;;;;;;;30.88;17.30;;;;;;;;;;5031393;28;20033;-71
2023/03/06 08:40:53;;;;;;;33.83;18.88;;;;;;;;;;5031077;28;20555;-69
2023/03/06 08:43:20;;;;;;;35.38;17.60;;;;;;;;;;5030501;28;20053;-71
2023/03/06 08:45:51;;;;;;;33.25;18.52;;;;;;;;;;5030548;28;20371;-69
2023/03/06 08:48:17;;;;;;;37.30;19.90;;;;;;;;;;5031060;28;20033;-69
2023/03/06 08:50:44;;;;;;;33.25;19.60;;;;;;;;;;5030163;28;20548;-70
2023/03/06 08:53:11;;;;;;;37.10;18.90;;;;;;;;;;5029795;28;20541;-72
2023/03/06 08:55:38;;;;;;;38.75;17.65;;;;;;;;;;5028541;28;20028;-70
2023/03/06 08:58:04;;;;;;;42.28;17.33;;;;;;;;;;5030567;28;20474;-70
2023/03/06 09:00:31;;;;;;;34.47;19.25;;;;;;;;;;5036276;28;20500;-72
2023/03/06 09:02:57;;;;;;;36.28;20.50;;;;;;;;;;5050611;28;20051;-68
2023/03/06 09:05:24;;;;;;;33.40;19.67;;;;;;;;;;5043110;28;20548;-69
2023/03/06 09:07:50;;;;;;;34.50;18.92;;;;;;;;;;5030192;28;20030;-71
2023/03/06 09:10:19;;;;;;;32.80;19.27;;;;;;;;;;5031167;28;20071;-68
2023/03/06 09:12:45;;;;;;;42.78;18.42;;;;;;;;;;5030944;28;20026;-67
2023/03/06 09:15:12;;;;;;;38.35;19.00;;;;;;;;;;5035449;28;20027;-70
2023/03/06 09:17:39;;;;;;;33.13;19.25;;;;;;;;;;5051011;28;20031;-73
2023/03/06 09:20:07;;;;;;;34.55;20.30;;;;;;;;;;5036361;28;20031;-69
2023/03/06 09:22:33;;;;;;;31.08;18.88;;;;;;;;;;5030962;28;20029;-69
2023/03/06 09:24:59;;;;;;;36.75;19.10;;;;;;;;;;5032660;28;20039;-68
2023/03/06 09:27:28;;;;;;;38.00;20.90;;;;;;;;;;5050378;28;20036;-71
2023/03/06 09:29:55;;;;;;;33.63;21.15;;;;;;;;;;5031967;28;20033;-69
2023/03/06 09:32:22;;;;;;;32.70;19.63;;;;;;;;;;5030804;28;20379;-71
2023/03/06 09:34:48;;;;;;;32.05;21.50;;;;;;;;;;5030475;28;20030;-68
2023/03/06 09:37:15;;;;;;;37.50;20.52;;;;;;;;;;5050570;28;20028;-68
2023/03/06 09:39:41;;;;;;;37.42;20.23;;;;;;;;;;5034737;28;20071;-68
2023/03/06 09:42:13;;;;;;;33.63;19.40;;;;;;;;;;5030572;28;20029;-68
2023/03/06 09:44:40;;;;;;;35.08;19.95;;;;;;;;;;5011107;28;20050;-69
2023/03/06 09:47:24;;;;;;;36.13;20.73;;;;;;;;;;5047538;28;20501;-69
2023/03/06 09:50:00;;;;;;;29.90;20.10;;;;;;;;;;5050009;28;20035;-73
2023/03/06 09:52:29;;;;;;;31.63;20.00;;;;;;;;;;5027225;28;20083;-73
2023/03/06 09:55:00;;;;;;;34.95;20.65;;;;;;;;;;5030385;28;20026;-72
2023/03/06 09:57:26;;;;;;;38.20;20.95;;;;;;;;;;5030176;28;20030;-71
2023/03/06 09:59:55;;;;;;;32.17;19.92;;;;;;;;;;5030578;28;20039;-69
2023/03/06 10:02:44;;;;;;;37.67;20.08;;;;;;;;;;5029337;28;20481;-68
2023/03/06 10:05:19;;;;;;;37.90;20.23;;;;;;;;;;5048321;28;20421;-70
2023/03/06 10:07:48;;;;;;;34.92;19.92;;;;;;;;;;5029231;28;20506;-74
2023/03/06 10:10:25;;;;;;;32.22;18.73;;;;;;;;;;5029812;28;20028;-69
2023/03/06 10:13:06;;;;;;;36.45;21.13;;;;;;;;;;5030007;28;20029;-71
2023/03/06 10:15:34;;;;;;;33.63;20.48;;;;;;;;;;5030111;28;20489;-69
2023/03/06 10:18:02;;;;;;;29.70;19.98;;;;;;;;;;5033550;28;20029;-72
2023/03/06 10:20:37;;;;;;;43.53;22.77;;;;;;;;;;5033779;28;20018;-69
2023/03/06 10:23:23;;;;;;;43.28;23.63;;;;;;;;;;5033819;28;20038;-70
2023/03/06 10:25:59;;;;;;;30.50;18.48;;;;;;;;;;5032089;28;20021;-68
2023/03/06 10:28:35;;;;;;;27.48;15.63;;;;;;;;;;5033597;28;20045;-68
2023/03/06 10:31:14;;;;;;;23.95;13.48;;;;;;;;;;5033887;28;20482;-69
2023/03/06 10:33:40;;;;;;;23.60;13.30;;;;;;;;;;5033213;28;20055;-72
2023/03/06 10:36:10;;;;;;;23.65;14.15;;;;;;;;;;5033452;28;20024;-69
2023/03/06 10:38:37;;;;;;;22.63;13.20;;;;;;;;;;5033192;28;20025;-67
2023/03/06 10:41:03;;;;;;;26.10;12.30;;;;;;;;;;5033121;28;20642;-70
2023/03/06 10:43:29;;;;;;;27.55;12.93;;;;;;;;;;5033417;28;20057;-69
2023/03/06 10:45:56;;;;;;;23.15;13.30;;;;;;;;;;5034121;28;20029;-69
2023/03/06 10:48:24;;;;;;;27.90;15.45;;;;;;;;;;5034052;28;20033;-67
2023/03/06 10:50:50;;;;;;;27.80;15.85;;;;;;;;;;5033088;28;20028;-67
2023/03/06 10:53:22;;;;;;;26.63;15.15;;;;;;;;;;5032827;28;20025;-66
2023/03/06 10:55:53;;;;;;;31.38;15.68;;;;;;;;;;5033254;28;20079;-68
2023/03/06 10:58:20;;;;;;;;;;;;;;;;;;5026616;28;20026;-66
2023/03/06 11:00:46;;;;;;;26.73;14.82;;;;;;;;;;5032821;28;19915;-69
2023/03/06 11:03:15;;;;;;;35.67;16.10;;;;;;;;;;5013784;28;20067;-68
2023/03/06 11:05:52;;;;;;;26.42;14.88;;;;;;;;;;5026488;28;20489;-71
2023/03/06 11:08:22;;;;;;;23.45;13.32;;;;;;;;;;5032729;28;20045;-70
2023/03/06 11:10:55;;;;;;;25.50;14.68;;;;;;;;;;5032939;28;20033;-69
2023/03/06 11:13:22;;;;;;;22.15;13.50;;;;;;;;;;5031542;28;20033;-71
2023/03/06 11:15:55;;;;;;;22.73;13.30;;;;;;;;;;5032601;28;20031;-69
2023/03/06 11:18:27;;;;;;;22.55;14.00;;;;;;;;;;5031539;28;20028;-68
2023/03/06 11:20:54;;;;;;;26.98;14.40;;;;;;;;;;5033245;28;20033;-67
2023/03/06 11:23:39;;;;;;;22.77;13.70;;;;;;;;;;5032073;28;20033;-69
2023/03/06 11:26:11;;;;;;;22.52;13.40;;;;;;;;;;5032581;28;20026;-68
2023/03/06 11:28:39;;;;;;;26.45;13.80;;;;;;;;;;5030950;28;20035;-69
2023/03/06 11:31:14;;;;;;;24.85;14.13;;;;;;;;;;5031838;28;20010;-67
2023/03/06 11:33:51;;;;;;;20.05;13.23;;;;;;;;;;5032193;28;20573;-68
2023/03/06 11:36:22;;;;;;;21.60;13.85;;;;;;;;;;5032870;28;20039;-68
2023/03/06 11:38:50;;;;;;;20.77;12.95;;;;;;;;;;5032452;28;20370;-68
2023/03/06 11:41:22;;;;;;;21.90;13.20;;;;;;;;;;5033037;28;20029;-69
2023/03/06 11:43:54;;;;;;;23.23;12.68;;;;;;;;;;5032681;28;20575;-69
2023/03/06 11:46:24;;;;;;;21.15;12.57;;;;;;;;;;5032929;28;20041;-67
2023/03/06 11:49:00;;;;;;;20.52;12.13;;;;;;;;;;5032816;28;20040;-69
2023/03/06 11:51:32;;;;;;;17.88;12.38;;;;;;;;;;5032286;28;20029;-68
2023/03/06 11:53:59;;;;;;;18.15;11.57;;;;;;;;;;5032712;28;20927;-68
2023/03/06 11:56:26;;;;;;;23.00;12.48;;;;;;;;;;5029931;28;20047;-68
2023/03/06 11:59:11;;;;;;;25.33;14.13;;;;;;;;;;5032394;28;20018;-68
2023/03/06 12:01:56;;;;;;;21.52;13.20;;;;;;;;;;5026035;28;20033;-67
2023/03/06 12:04:46;;;;;;;22.05;13.23;;;;;;;;;;5031547;28;20036;-67
2023/03/06 12:07:13;;;;;;;24.63;13.10;;;;;;;;;;5029421;28;20401;-67
2023/03/06 12:09:45;;;;;;;21.02;13.32;;;;;;;;;;5031149;28;20029;-67
2023/03/06 12:12:15;;;;;;;23.52;15.15;;;;;;;;;;5031365;28;20029;-67
2023/03/06 12:14:44;;;;;;;22.15;12.70;;;;;;;;;;5031479;28;20030;-66
2023/03/06 12:17:10;;;;;;;20.77;13.63;;;;;;;;;;5031223;28;20045;-67
2023/03/06 12:19:37;;;;;;;26.63;14.45;;;;;;;;;;5031508;28;20021;-67
2023/03/06 12:22:03;;;;;;;27.52;13.48;;;;;;;;;;5031406;28;20036;-67
2023/03/06 12:24:48;;;;;;;25.77;13.07;;;;;;;;;;5031829;28;20044;-68
2023/03/06 12:27:19;;;;;;;19.65;11.88;;;;;;;;;;5031602;28;20025;-68
2023/03/06 12:30:00;;;;;;;25.65;13.05;;;;;;;;;;5031535;28;20028;-68
2023/03/06 12:32:29;;;;;;;22.17;12.07;;;;;;;;;;5031189;28;20466;-68
2023/03/06 12:35:14;;;;;;;21.25;12.23;;;;;;;;;;5031348;28;20029;-68
2023/03/06 12:37:49;;;;;;;20.15;12.48;;;;;;;;;;5031666;28;20071;-67
2023/03/06 12:40:34;;;;;;;17.90;10.52;;;;;;;;;;5010363;28;20036;-67
2023/03/06 12:43:21;;;;;;;16.50;11.35;;;;;;;;;;5011451;28;20042;-67
2023/03/06 12:45:48;;;;;;;16.80;11.27;;;;;;;;;;5009246;28;20405;-67
2023/03/06 12:48:20;;;;;;;19.77;12.32;;;;;;;;;;5016067;28;20488;-67
2023/03/06 12:50:47;;;;;;;21.55;12.75;;;;;;;;;;5023814;28;20037;-67
2023/03/06 12:53:32;;;;;;;23.63;13.25;;;;;;;;;;5028030;28;20383;-66
2023/03/06 12:56:00;;;;;;;17.98;11.95;;;;;;;;;;5028673;28;20030;-68
2023/03/06 12:58:29;;;;;;;18.10;12.27;;;;;;;;;;5028839;28;20026;-65
2023/03/06 13:01:06;;;;;;;19.38;11.57;;;;;;;;;;5028581;28;20163;-65
2023/03/06 13:03:38;;;;;;;18.77;12.40;;;;;;;;;;5025087;28;20055;-68
2023/03/06 13:06:13;;;;;;;23.25;12.75;;;;;;;;;;5025395;28;20067;-67
2023/03/06 13:08:45;;;;;;;17.67;12.30;;;;;;;;;;5028297;28;20041;-68
2023/03/06 13:11:15;;;;;;;19.33;13.07;;;;;;;;;;5047917;28;20032;-68
2023/03/06 13:13:43;;;;;;;20.38;11.75;;;;;;;;;;5039484;28;20083;-68
2023/03/06 13:16:11;;;;;;;16.20;11.40;;;;;;;;;;5028176;28;20041;-68
2023/03/06 13:18:37;;;;;;;14.55;10.50;;;;;;;;;;5025083;28;20498;-68
2023/03/06 13:21:03;;;;;;;18.17;12.07;;;;;;;;;;5026828;28;20041;-66
2023/03/06 13:23:30;;;;;;;20.55;13.20;;;;;;;;;;5028977;28;20441;-67
2023/03/06 13:25:57;;;;;;;20.17;13.02;;;;;;;;;;5029719;28;20024;-66
2023/03/06 13:28:44;;;;;;;17.73;11.77;;;;;;;;;;5028857;28;20029;-68
2023/03/06 13:31:10;;;;;;;21.55;11.48;;;;;;;;;;5019578;28;20029;-66
2023/03/06 13:33:37;;;;;;;18.20;12.00;;;;;;;;;;5029039;28;20838;-67
2023/03/06 13:36:39;;;;;;;22.15;13.75;;;;;;;;;;5029986;28;20042;-67
2023/03/06 13:39:05;;;;;;;18.75;10.38;;;;;;;;;;4997113;28;20508;-66
2023/03/06 13:41:31;;;;;;;18.27;12.23;;;;;;;;;;5007478;28;20092;-68
2023/03/06 13:43:59;;;;;;;17.33;11.05;;;;;;;;;;5007801;28;20038;-67
2023/03/06 13:46:25;;;;;;;17.67;11.50;;;;;;;;;;5008065;28;20402;-68
2023/03/06 13:49:10;;;;;;;18.08;10.82;;;;;;;;;;5006092;28;20111;-68
2023/03/06 13:51:45;;;;;;;16.88;10.82;;;;;;;;;;5011643;28;20029;-68
2023/03/06 13:54:26;;;;;;;17.95;11.25;;;;;;;;;;5014148;28;20030;-67
2023/03/06 13:57:03;;;;;;;16.90;10.23;;;;;;;;;;5012851;28;20040;-69
2023/03/06 13:59:32;;;;;;;16.60;11.27;;;;;;;;;;5013671;28;20504;-68
2023/03/06 14:02:24;;;;;;;22.10;11.48;;;;;;;;;;5012267;28;20148;-69
2023/03/06 14:04:52;;;;;;;14.75;10.45;;;;;;;;;;4942497;28;20054;-68
2023/03/06 14:07:22;;;;;;;15.20;11.13;;;;;;;;;;4955412;29;20439;-68
2023/03/06 14:09:54;;;;;;;18.63;11.70;;;;;;;;;;4956419;28;20035;-68
2023/03/06 14:12:25;;;;;;;19.55;13.20;;;;;;;;;;4962594;28;20544;-67
2023/03/06 14:14:55;;;;;;;18.73;12.40;;;;;;;;;;4984846;28;20571;-67
2023/03/06 14:17:24;;;;;;;20.00;13.02;;;;;;;;;;4994716;28;20041;-68
2023/03/06 14:19:51;;;;;;;22.02;12.95;;;;;;;;;;4994386;28;20029;-67
2023/03/06 14:22:20;;;;;;;24.08;13.88;;;;;;;;;;4993391;28;20060;-67
2023/03/06 14:25:12;;;;;;;20.83;13.85;;;;;;;;;;4983035;28;20042;-66
2023/03/06 14:27:44;;;;;;;23.95;14.23;;;;;;;;;;4955100;28;20047;-67